sensor_id;sensor_type;location;lat;lon;timestamp;temperature;humidity
75961;SHT30;64644;48.914;2.254;2023-11-19T00:01:45;16.66;80.28
75961;SHT30;64644;48.914;2.254;2023-11-19T00:04:12;16.66;80.25
75961;SHT30;64644;48.914;2.254;2023-11-19T00:06:37;16.68;80.25
75961;SHT30;64644;48.914;2.254;2023-11-19T00:09:03;16.71;80.18
75961;SHT30;64644;48.914;2.254;2023-11-19T00:11:29;16.71;80.18
75961;SHT30;64644;48.914;2.254;2023-11-19T00:13:54;16.72;80.14
75961;SHT30;64644;48.914;2.254;2023-11-19T00:16:20;16.68;80.12
75961;SHT30;64644;48.914;2.254;2023-11-19T00:18:45;16.69;80.13
75961;SHT30;64644;48.914;2.254;2023-11-19T00:21:10;16.69;80.09
75961;SHT30;64644;48.914;2.254;2023-11-19T00:23:36;16.71;80.08
75961;SHT30;64644;48.914;2.254;2023-11-19T00:26:02;16.72;80.15
75961;SHT30;64644;48.914;2.254;2023-11-19T00:28:27;16.71;80.03
75961;SHT30;64644;48.914;2.254;2023-11-19T00:30:53;16.72;80.04
75961;SHT30;64644;48.914;2.254;2023-11-19T00:33:19;16.71;80.02
75961;SHT30;64644;48.914;2.254;2023-11-19T00:35:44;16.73;80.05
75961;SHT30;64644;48.914;2.254;2023-11-19T00:38:10;16.73;80.02
75961;SHT30;64644;48.914;2.254;2023-11-19T00:40:35;16.73;80.02
75961;SHT30;64644;48.914;2.254;2023-11-19T00:43:01;16.75;80.04
75961;SHT30;64644;48.914;2.254;2023-11-19T00:45:26;16.73;79.98
75961;SHT30;64644;48.914;2.254;2023-11-19T00:47:52;16.73;79.93
75961;SHT30;64644;48.914;2.254;2023-11-19T00:50:17;16.77;79.91
75961;SHT30;64644;48.914;2.254;2023-11-19T00:52:42;16.77;79.91
75961;SHT30;64644;48.914;2.254;2023-11-19T00:55:08;16.77;79.87
75961;SHT30;64644;48.914;2.254;2023-11-19T00:57:33;16.79;79.85
75961;SHT30;64644;48.914;2.254;2023-11-19T01:00:00;16.77;79.83
75961;SHT30;64644;48.914;2.254;2023-11-19T01:02:26;16.77;79.78
75961;SHT30;64644;48.914;2.254;2023-11-19T01:04:51;16.77;79.81
75961;SHT30;64644;48.914;2.254;2023-11-19T01:07:17;16.77;79.80
75961;SHT30;64644;48.914;2.254;2023-11-19T01:09:42;16.77;79.77
75961;SHT30;64644;48.914;2.254;2023-11-19T01:12:08;16.79;79.78
75961;SHT30;64644;48.914;2.254;2023-11-19T01:14:37;16.80;79.75
75961;SHT30;64644;48.914;2.254;2023-11-19T01:17:03;16.80;79.73
75961;SHT30;64644;48.914;2.254;2023-11-19T01:19:29;16.82;79.75
75961;SHT30;64644;48.914;2.254;2023-11-19T01:21:55;16.84;79.70
75961;SHT30;64644;48.914;2.254;2023-11-19T01:24:21;16.83;79.74
75961;SHT30;64644;48.914;2.254;2023-11-19T01:26:46;16.82;79.68
75961;SHT30;64644;48.914;2.254;2023-11-19T01:29:14;16.83;79.64
75961;SHT30;64644;48.914;2.254;2023-11-19T01:31:44;16.86;79.58
75961;SHT30;64644;48.914;2.254;2023-11-19T01:34:10;16.83;79.59
75961;SHT30;64644;48.914;2.254;2023-11-19T01:36:36;16.82;79.61
75961;SHT30;64644;48.914;2.254;2023-11-19T01:39:02;16.82;79.60
75961;SHT30;64644;48.914;2.254;2023-11-19T01:41:29;16.86;79.60
75961;SHT30;64644;48.914;2.254;2023-11-19T01:43:54;16.84;79.54
75961;SHT30;64644;48.914;2.254;2023-11-19T01:46:19;16.83;79.53
75961;SHT30;64644;48.914;2.254;2023-11-19T01:48:46;16.83;79.55
75961;SHT30;64644;48.914;2.254;2023-11-19T01:51:16;16.86;79.48
75961;SHT30;64644;48.914;2.254;2023-11-19T01:53:43;16.84;79.46
75961;SHT30;64644;48.914;2.254;2023-11-19T01:56:09;16.86;79.38
75961;SHT30;64644;48.914;2.254;2023-11-19T01:58:36;16.84;79.31
75961;SHT30;64644;48.914;2.254;2023-11-19T02:01:01;16.83;79.27
75961;SHT30;64644;48.914;2.254;2023-11-19T02:03:31;16.83;79.30
75961;SHT30;64644;48.914;2.254;2023-11-19T02:05:58;16.82;79.29
75961;SHT30;64644;48.914;2.254;2023-11-19T02:08:23;16.79;79.22
75961;SHT30;64644;48.914;2.254;2023-11-19T02:10:49;16.77;79.26
75961;SHT30;64644;48.914;2.254;2023-11-19T02:13:14;16.76;79.28
75961;SHT30;64644;48.914;2.254;2023-11-19T02:15:41;16.72;79.22
75961;SHT30;64644;48.914;2.254;2023-11-19T02:18:24;16.71;79.20
75961;SHT30;64644;48.914;2.254;2023-11-19T02:20:52;16.68;79.27
75961;SHT30;64644;48.914;2.254;2023-11-19T02:23:19;16.65;79.25
75961;SHT30;64644;48.914;2.254;2023-11-19T02:28:35;16.65;79.21
75961;SHT30;64644;48.914;2.254;2023-11-19T02:31:01;16.62;79.20
75961;SHT30;64644;48.914;2.254;2023-11-19T02:33:26;16.61;79.18
75961;SHT30;64644;48.914;2.254;2023-11-19T02:35:52;16.59;79.21
75961;SHT30;64644;48.914;2.254;2023-11-19T02:38:17;16.59;79.15
75961;SHT30;64644;48.914;2.254;2023-11-19T02:40:42;16.56;79.17
75961;SHT30;64644;48.914;2.254;2023-11-19T02:43:08;16.55;79.17
75961;SHT30;64644;48.914;2.254;2023-11-19T02:45:33;16.55;79.17
75961;SHT30;64644;48.914;2.254;2023-11-19T02:47:59;16.52;79.18
75961;SHT30;64644;48.914;2.254;2023-11-19T02:50:26;16.55;79.14
75961;SHT30;64644;48.914;2.254;2023-11-19T02:52:53;16.54;79.06
75961;SHT30;64644;48.914;2.254;2023-11-19T02:55:19;16.54;78.95
75961;SHT30;64644;48.914;2.254;2023-11-19T02:57:45;16.51;78.94
75961;SHT30;64644;48.914;2.254;2023-11-19T03:00:23;16.49;78.89
75961;SHT30;64644;48.914;2.254;2023-11-19T03:03:10;16.51;78.89
75961;SHT30;64644;48.914;2.254;2023-11-19T03:05:48;16.52;78.86
75961;SHT30;64644;48.914;2.254;2023-11-19T03:08:14;16.49;78.85
75961;SHT30;64644;48.914;2.254;2023-11-19T03:10:40;16.49;78.84
75961;SHT30;64644;48.914;2.254;2023-11-19T03:13:11;16.48;78.75
75961;SHT30;64644;48.914;2.254;2023-11-19T03:15:38;16.49;78.78
75961;SHT30;64644;48.914;2.254;2023-11-19T03:18:03;16.49;78.70
75961;SHT30;64644;48.914;2.254;2023-11-19T03:20:28;16.47;78.68
75961;SHT30;64644;48.914;2.254;2023-11-19T03:22:55;16.47;78.72
75961;SHT30;64644;48.914;2.254;2023-11-19T03:25:20;16.44;78.68
75961;SHT30;64644;48.914;2.254;2023-11-19T03:27:46;16.40;78.68
75961;SHT30;64644;48.914;2.254;2023-11-19T03:30:11;16.37;78.71
75961;SHT30;64644;48.914;2.254;2023-11-19T03:32:37;16.40;78.70
75961;SHT30;64644;48.914;2.254;2023-11-19T03:35:04;16.35;78.69
75961;SHT30;64644;48.914;2.254;2023-11-19T03:37:30;16.35;78.68
75961;SHT30;64644;48.914;2.254;2023-11-19T03:39:56;16.34;78.71
75961;SHT30;64644;48.914;2.254;2023-11-19T03:42:25;16.34;78.74
75961;SHT30;64644;48.914;2.254;2023-11-19T03:44:51;16.32;78.83
75961;SHT30;64644;48.914;2.254;2023-11-19T03:47:17;16.31;78.83
75961;SHT30;64644;48.914;2.254;2023-11-19T03:49:47;16.30;78.83
75961;SHT30;64644;48.914;2.254;2023-11-19T03:52:13;16.30;78.85
75961;SHT30;64644;48.914;2.254;2023-11-19T03:54:39;16.31;78.83
75961;SHT30;64644;48.914;2.254;2023-11-19T03:57:04;16.31;78.88
75961;SHT30;64644;48.914;2.254;2023-11-19T03:59:30;16.30;78.82
75961;SHT30;64644;48.914;2.254;2023-11-19T04:01:56;16.25;78.83
75961;SHT30;64644;48.914;2.254;2023-11-19T04:04:21;16.22;78.82
75961;SHT30;64644;48.914;2.254;2023-11-19T04:06:48;16.21;78.83
75961;SHT30;64644;48.914;2.254;2023-11-19T04:09:13;16.21;78.82
75961;SHT30;64644;48.914;2.254;2023-11-19T04:11:38;16.18;78.76
75961;SHT30;64644;48.914;2.254;2023-11-19T04:14:05;16.16;78.76
75961;SHT30;64644;48.914;2.254;2023-11-19T04:16:30;16.16;78.76
75961;SHT30;64644;48.914;2.254;2023-11-19T04:18:55;16.14;78.62
75961;SHT30;64644;48.914;2.254;2023-11-19T04:21:21;16.13;78.63
75961;SHT30;64644;48.914;2.254;2023-11-19T04:23:48;16.13;78.57
75961;SHT30;64644;48.914;2.254;2023-11-19T04:26:13;16.14;78.41
75961;SHT30;64644;48.914;2.254;2023-11-19T04:28:39;16.11;78.38
75961;SHT30;64644;48.914;2.254;2023-11-19T04:31:04;16.09;78.24
75961;SHT30;64644;48.914;2.254;2023-11-19T04:33:31;16.09;78.25
75961;SHT30;64644;48.914;2.254;2023-11-19T04:35:56;16.09;78.20
75961;SHT30;64644;48.914;2.254;2023-11-19T04:38:21;16.13;78.17
75961;SHT30;64644;48.914;2.254;2023-11-19T04:40:47;16.11;78.07
75961;SHT30;64644;48.914;2.254;2023-11-19T04:43:12;16.09;77.88
75961;SHT30;64644;48.914;2.254;2023-11-19T04:45:38;16.10;77.86
75961;SHT30;64644;48.914;2.254;2023-11-19T04:48:05;16.09;77.77
75961;SHT30;64644;48.914;2.254;2023-11-19T04:50:30;16.09;77.69
75961;SHT30;64644;48.914;2.254;2023-11-19T04:52:55;16.06;77.80
75961;SHT30;64644;48.914;2.254;2023-11-19T04:55:21;16.04;77.70
75961;SHT30;64644;48.914;2.254;2023-11-19T04:57:46;16.04;77.67
75961;SHT30;64644;48.914;2.254;2023-11-19T05:00:13;16.02;77.67
75961;SHT30;64644;48.914;2.254;2023-11-19T05:02:38;16.03;77.49
75961;SHT30;64644;48.914;2.254;2023-11-19T05:05:04;16.00;77.43
75961;SHT30;64644;48.914;2.254;2023-11-19T05:07:30;16.02;77.29
75961;SHT30;64644;48.914;2.254;2023-11-19T05:09:56;16.02;77.22
75961;SHT30;64644;48.914;2.254;2023-11-19T05:12:21;16.03;77.24
75961;SHT30;64644;48.914;2.254;2023-11-19T05:14:48;16.00;77.26
75961;SHT30;64644;48.914;2.254;2023-11-19T05:17:16;15.99;77.21
75961;SHT30;64644;48.914;2.254;2023-11-19T05:19:43;15.99;77.20
75961;SHT30;64644;48.914;2.254;2023-11-19T05:22:08;15.99;77.10
75961;SHT30;64644;48.914;2.254;2023-11-19T05:24:33;15.99;77.09
75961;SHT30;64644;48.914;2.254;2023-11-19T05:26:59;15.96;77.08
75961;SHT30;64644;48.914;2.254;2023-11-19T05:29:24;15.99;77.09
75961;SHT30;64644;48.914;2.254;2023-11-19T05:31:50;15.94;77.11
75961;SHT30;64644;48.914;2.254;2023-11-19T05:34:15;15.93;76.99
75961;SHT30;64644;48.914;2.254;2023-11-19T05:36:40;15.89;76.93
75961;SHT30;64644;48.914;2.254;2023-11-19T05:39:06;15.89;76.84
75961;SHT30;64644;48.914;2.254;2023-11-19T05:41:31;15.85;76.89
75961;SHT30;64644;48.914;2.254;2023-11-19T05:43:56;15.83;76.75
75961;SHT30;64644;48.914;2.254;2023-11-19T05:46:22;15.81;76.86
75961;SHT30;64644;48.914;2.254;2023-11-19T05:48:48;15.78;76.75
75961;SHT30;64644;48.914;2.254;2023-11-19T05:51:13;15.79;76.75
75961;SHT30;64644;48.914;2.254;2023-11-19T05:53:40;15.75;76.71
75961;SHT30;64644;48.914;2.254;2023-11-19T05:56:06;15.72;76.67
75961;SHT30;64644;48.914;2.254;2023-11-19T05:58:35;15.69;76.76
75961;SHT30;64644;48.914;2.254;2023-11-19T06:01:01;15.66;76.74
75961;SHT30;64644;48.914;2.254;2023-11-19T06:03:27;15.63;76.80
75961;SHT30;64644;48.914;2.254;2023-11-19T06:05:53;15.63;76.83
75961;SHT30;64644;48.914;2.254;2023-11-19T06:08:19;15.62;76.82
75961;SHT30;64644;48.914;2.254;2023-11-19T06:10:46;15.62;76.78
75961;SHT30;64644;48.914;2.254;2023-11-19T06:13:15;15.61;76.75
75961;SHT30;64644;48.914;2.254;2023-11-19T06:15:41;15.61;76.64
75961;SHT30;64644;48.914;2.254;2023-11-19T06:18:07;15.58;76.66
75961;SHT30;64644;48.914;2.254;2023-11-19T06:20:33;15.57;76.68
75961;SHT30;64644;48.914;2.254;2023-11-19T06:22:59;15.54;76.61
75961;SHT30;64644;48.914;2.254;2023-11-19T06:25:24;15.51;76.62
75961;SHT30;64644;48.914;2.254;2023-11-19T06:27:51;15.49;76.59
75961;SHT30;64644;48.914;2.254;2023-11-19T06:30:17;15.47;76.59
75961;SHT30;64644;48.914;2.254;2023-11-19T06:32:42;15.45;76.60
75961;SHT30;64644;48.914;2.254;2023-11-19T06:35:08;15.45;76.61
75961;SHT30;64644;48.914;2.254;2023-11-19T06:37:34;15.42;76.54
75961;SHT30;64644;48.914;2.254;2023-11-19T06:40:00;15.40;76.46
75961;SHT30;64644;48.914;2.254;2023-11-19T06:42:25;15.38;76.36
75961;SHT30;64644;48.914;2.254;2023-11-19T06:44:50;15.32;76.26
75961;SHT30;64644;48.914;2.254;2023-11-19T06:47:17;15.32;76.24
75961;SHT30;64644;48.914;2.254;2023-11-19T06:49:44;15.30;76.17
75961;SHT30;64644;48.914;2.254;2023-11-19T06:52:09;15.28;76.11
75961;SHT30;64644;48.914;2.254;2023-11-19T06:54:35;15.26;76.11
75961;SHT30;64644;48.914;2.254;2023-11-19T06:57:00;15.24;76.04
75961;SHT30;64644;48.914;2.254;2023-11-19T06:59:26;15.20;76.19
75961;SHT30;64644;48.914;2.254;2023-11-19T07:01:51;15.19;76.08
75961;SHT30;64644;48.914;2.254;2023-11-19T07:04:16;15.16;76.05
75961;SHT30;64644;48.914;2.254;2023-11-19T07:06:41;15.14;75.99
75961;SHT30;64644;48.914;2.254;2023-11-19T07:09:07;15.13;76.01
75961;SHT30;64644;48.914;2.254;2023-11-19T07:11:44;15.08;75.94
75961;SHT30;64644;48.914;2.254;2023-11-19T07:14:11;15.06;75.72
75961;SHT30;64644;48.914;2.254;2023-11-19T07:16:37;15.08;75.84
75961;SHT30;64644;48.914;2.254;2023-11-19T07:19:05;15.10;75.81
75961;SHT30;64644;48.914;2.254;2023-11-19T07:21:31;15.07;75.60
75961;SHT30;64644;48.914;2.254;2023-11-19T07:23:58;15.03;75.51
75961;SHT30;64644;48.914;2.254;2023-11-19T07:26:23;14.97;75.35
75961;SHT30;64644;48.914;2.254;2023-11-19T07:28:49;14.99;75.46
75961;SHT30;64644;48.914;2.254;2023-11-19T07:31:15;14.97;75.25
75961;SHT30;64644;48.914;2.254;2023-11-19T07:33:40;14.97;75.33
75961;SHT30;64644;48.914;2.254;2023-11-19T07:36:08;14.99;75.23
75961;SHT30;64644;48.914;2.254;2023-11-19T07:38:34;14.99;75.15
75961;SHT30;64644;48.914;2.254;2023-11-19T07:40:59;14.97;75.11
75961;SHT30;64644;48.914;2.254;2023-11-19T07:43:24;14.96;75.02
75961;SHT30;64644;48.914;2.254;2023-11-19T07:45:49;14.95;75.01
75961;SHT30;64644;48.914;2.254;2023-11-19T07:48:15;14.95;75.04
75961;SHT30;64644;48.914;2.254;2023-11-19T07:50:40;14.96;74.92
75961;SHT30;64644;48.914;2.254;2023-11-19T07:53:06;14.96;74.90
75961;SHT30;64644;48.914;2.254;2023-11-19T07:55:32;14.95;74.84
75961;SHT30;64644;48.914;2.254;2023-11-19T07:57:58;14.95;74.85
75961;SHT30;64644;48.914;2.254;2023-11-19T08:00:23;14.95;74.90
75961;SHT30;64644;48.914;2.254;2023-11-19T08:02:48;14.97;74.91
75961;SHT30;64644;48.914;2.254;2023-11-19T08:05:14;15.00;74.89
75961;SHT30;64644;48.914;2.254;2023-11-19T08:07:39;14.99;74.83
75961;SHT30;64644;48.914;2.254;2023-11-19T08:10:05;15.00;74.86
75961;SHT30;64644;48.914;2.254;2023-11-19T08:12:31;14.97;74.87
75961;SHT30;64644;48.914;2.254;2023-11-19T08:14:56;14.96;74.89
75961;SHT30;64644;48.914;2.254;2023-11-19T08:17:23;14.97;74.83
75961;SHT30;64644;48.914;2.254;2023-11-19T08:19:49;14.95;74.88
75961;SHT30;64644;48.914;2.254;2023-11-19T08:22:14;14.97;74.89
75961;SHT30;64644;48.914;2.254;2023-11-19T08:24:40;15.00;74.91
75961;SHT30;64644;48.914;2.254;2023-11-19T08:27:05;15.03;74.90
75961;SHT30;64644;48.914;2.254;2023-11-19T08:29:30;14.99;74.78
75961;SHT30;64644;48.914;2.254;2023-11-19T08:31:56;15.02;74.90
75961;SHT30;64644;48.914;2.254;2023-11-19T08:34:21;15.04;74.88
75961;SHT30;64644;48.914;2.254;2023-11-19T08:36:50;15.04;74.79
75961;SHT30;64644;48.914;2.254;2023-11-19T08:39:15;15.06;74.81
75961;SHT30;64644;48.914;2.254;2023-11-19T08:41:42;15.07;74.74
75961;SHT30;64644;48.914;2.254;2023-11-19T08:44:07;15.06;74.51
75961;SHT30;64644;48.914;2.254;2023-11-19T08:46:32;15.08;74.49
75961;SHT30;64644;48.914;2.254;2023-11-19T08:48:57;15.13;74.37
75961;SHT30;64644;48.914;2.254;2023-11-19T08:51:24;15.17;74.19
75961;SHT30;64644;48.914;2.254;2023-11-19T08:53:50;15.16;74.08
75961;SHT30;64644;48.914;2.254;2023-11-19T08:56:15;15.24;74.06
75961;SHT30;64644;48.914;2.254;2023-11-19T08:58:40;15.23;73.87
75961;SHT30;64644;48.914;2.254;2023-11-19T09:01:06;15.24;73.77
75961;SHT30;64644;48.914;2.254;2023-11-19T09:03:31;15.31;73.83
75961;SHT30;64644;48.914;2.254;2023-11-19T09:05:57;15.35;73.61
75961;SHT30;64644;48.914;2.254;2023-11-19T09:08:22;15.40;73.54
75961;SHT30;64644;48.914;2.254;2023-11-19T09:10:48;15.42;73.42
75961;SHT30;64644;48.914;2.254;2023-11-19T09:13:13;15.42;73.38
75961;SHT30;64644;48.914;2.254;2023-11-19T09:15:38;15.44;73.01
75961;SHT30;64644;48.914;2.254;2023-11-19T09:18:04;15.40;73.16
75961;SHT30;64644;48.914;2.254;2023-11-19T09:20:29;15.35;72.95
75961;SHT30;64644;48.914;2.254;2023-11-19T09:23:02;15.37;73.02
75961;SHT30;64644;48.914;2.254;2023-11-19T09:25:28;15.34;72.94
75961;SHT30;64644;48.914;2.254;2023-11-19T09:27:53;15.32;72.81
75961;SHT30;64644;48.914;2.254;2023-11-19T09:30:19;15.31;72.56
75961;SHT30;64644;48.914;2.254;2023-11-19T09:32:44;15.31;72.49
75961;SHT30;64644;48.914;2.254;2023-11-19T09:35:09;15.37;72.47
75961;SHT30;64644;48.914;2.254;2023-11-19T09:37:38;15.38;72.42
75961;SHT30;64644;48.914;2.254;2023-11-19T09:40:04;15.41;72.20
75961;SHT30;64644;48.914;2.254;2023-11-19T09:42:32;15.42;72.04
75961;SHT30;64644;48.914;2.254;2023-11-19T09:45:03;15.49;72.16
75961;SHT30;64644;48.914;2.254;2023-11-19T09:47:31;15.59;72.15
75961;SHT30;64644;48.914;2.254;2023-11-19T09:49:56;15.70;72.09
75961;SHT30;64644;48.914;2.254;2023-11-19T09:52:22;15.75;71.71
75961;SHT30;64644;48.914;2.254;2023-11-19T09:54:49;15.81;71.47
75961;SHT30;64644;48.914;2.254;2023-11-19T09:57:15;15.87;71.48
75961;SHT30;64644;48.914;2.254;2023-11-19T09:59:42;15.90;70.97
75961;SHT30;64644;48.914;2.254;2023-11-19T10:02:08;15.96;71.06
75961;SHT30;64644;48.914;2.254;2023-11-19T10:04:35;15.94;70.65
75961;SHT30;64644;48.914;2.254;2023-11-19T10:07:02;15.99;70.87
75961;SHT30;64644;48.914;2.254;2023-11-19T10:09:27;16.03;70.65
75961;SHT30;64644;48.914;2.254;2023-11-19T10:11:53;16.03;70.70
75961;SHT30;64644;48.914;2.254;2023-11-19T10:14:23;16.11;70.40
75961;SHT30;64644;48.914;2.254;2023-11-19T10:16:48;16.16;70.28
75961;SHT30;64644;48.914;2.254;2023-11-19T10:19:20;16.22;70.26
75961;SHT30;64644;48.914;2.254;2023-11-19T10:21:46;16.32;70.11
75961;SHT30;64644;48.914;2.254;2023-11-19T10:24:12;16.35;69.95
75961;SHT30;64644;48.914;2.254;2023-11-19T10:26:37;16.37;69.65
75961;SHT30;64644;48.914;2.254;2023-11-19T10:29:02;16.44;69.44
75961;SHT30;64644;48.914;2.254;2023-11-19T10:31:29;16.44;69.40
75961;SHT30;64644;48.914;2.254;2023-11-19T10:33:54;16.45;69.02
75961;SHT30;64644;48.914;2.254;2023-11-19T10:36:20;16.52;69.13
75961;SHT30;64644;48.914;2.254;2023-11-19T10:38:56;16.51;68.95
75961;SHT30;64644;48.914;2.254;2023-11-19T10:41:32;16.48;68.80
75961;SHT30;64644;48.914;2.254;2023-11-19T10:43:58;16.51;68.73
75961;SHT30;64644;48.914;2.254;2023-11-19T10:46:36;16.59;68.64
75961;SHT30;64644;48.914;2.254;2023-11-19T10:49:03;16.58;68.19
75961;SHT30;64644;48.914;2.254;2023-11-19T10:51:29;16.66;68.26
75961;SHT30;64644;48.914;2.254;2023-11-19T10:53:57;16.73;68.32
75961;SHT30;64644;48.914;2.254;2023-11-19T10:56:29;16.72;68.09
75961;SHT30;64644;48.914;2.254;2023-11-19T10:58:56;16.83;67.96
75961;SHT30;64644;48.914;2.254;2023-11-19T11:01:27;16.86;67.68
75961;SHT30;64644;48.914;2.254;2023-11-19T11:03:59;16.79;67.06
75961;SHT30;64644;48.914;2.254;2023-11-19T11:06:26;16.75;67.38
75961;SHT30;64644;48.914;2.254;2023-11-19T11:08:51;16.80;67.48
75961;SHT30;64644;48.914;2.254;2023-11-19T11:11:18;16.77;67.07
75961;SHT30;64644;48.914;2.254;2023-11-19T11:13:47;16.76;66.73
75961;SHT30;64644;48.914;2.254;2023-11-19T11:16:14;16.79;66.61
75961;SHT30;64644;48.914;2.254;2023-11-19T11:18:40;16.77;66.36
75961;SHT30;64644;48.914;2.254;2023-11-19T11:21:10;16.82;65.98
75961;SHT30;64644;48.914;2.254;2023-11-19T11:34:39;16.97;65.02
75961;SHT30;64644;48.914;2.254;2023-11-19T11:37:10;16.96;64.62
75961;SHT30;64644;48.914;2.254;2023-11-19T11:39:41;16.96;64.25
75961;SHT30;64644;48.914;2.254;2023-11-19T11:45:03;17.07;64.27
75961;SHT30;64644;48.914;2.254;2023-11-19T11:58:18;17.16;63.08
75961;SHT30;64644;48.914;2.254;2023-11-19T12:00:43;17.21;62.85
75961;SHT30;64644;48.914;2.254;2023-11-19T12:03:11;17.20;62.62
75961;SHT30;64644;48.914;2.254;2023-11-19T12:05:44;17.21;62.52
75961;SHT30;64644;48.914;2.254;2023-11-19T12:08:11;17.24;62.49
75961;SHT30;64644;48.914;2.254;2023-11-19T12:10:47;17.23;62.49
75961;SHT30;64644;48.914;2.254;2023-11-19T12:13:13;17.31;62.48
75961;SHT30;64644;48.914;2.254;2023-11-19T12:18:28;17.41;62.34
75961;SHT30;64644;48.914;2.254;2023-11-19T12:20:54;17.46;62.55
75961;SHT30;64644;48.914;2.254;2023-11-19T12:23:19;17.61;62.91
75961;SHT30;64644;48.914;2.254;2023-11-19T12:25:44;17.69;62.66
75961;SHT30;64644;48.914;2.254;2023-11-19T12:28:14;17.72;62.12
75961;SHT30;64644;48.914;2.254;2023-11-19T12:30:41;17.69;61.61
75961;SHT30;64644;48.914;2.254;2023-11-19T12:33:11;17.58;61.03
75961;SHT30;64644;48.914;2.254;2023-11-19T12:35:42;17.55;61.25
75961;SHT30;64644;48.914;2.254;2023-11-19T12:38:17;17.48;61.26
75961;SHT30;64644;48.914;2.254;2023-11-19T12:40:43;17.42;60.88
75961;SHT30;64644;48.914;2.254;2023-11-19T12:43:09;17.32;61.03
75961;SHT30;64644;48.914;2.254;2023-11-19T12:45:35;17.32;61.48
75961;SHT30;64644;48.914;2.254;2023-11-19T12:48:08;17.37;61.57
75961;SHT30;64644;48.914;2.254;2023-11-19T12:50:50;17.34;61.61
75961;SHT30;64644;48.914;2.254;2023-11-19T12:53:17;17.30;61.55
75961;SHT30;64644;48.914;2.254;2023-11-19T12:55:42;17.34;61.63
75961;SHT30;64644;48.914;2.254;2023-11-19T12:58:07;17.27;61.53
75961;SHT30;64644;48.914;2.254;2023-11-19T13:00:33;17.18;61.81
75961;SHT30;64644;48.914;2.254;2023-11-19T13:02:58;17.13;61.99
75961;SHT30;64644;48.914;2.254;2023-11-19T13:07:59;16.97;61.81
75961;SHT30;64644;48.914;2.254;2023-11-19T13:10:25;16.97;62.01
75961;SHT30;64644;48.914;2.254;2023-11-19T13:13:04;16.94;62.17
75961;SHT30;64644;48.914;2.254;2023-11-19T13:15:31;16.87;62.18
75961;SHT30;64644;48.914;2.254;2023-11-19T13:17:57;16.84;62.28
75961;SHT30;64644;48.914;2.254;2023-11-19T13:20:22;16.79;62.27
75961;SHT30;64644;48.914;2.254;2023-11-19T13:23:02;16.80;62.38
75961;SHT30;64644;48.914;2.254;2023-11-19T13:25:28;16.80;62.33
75961;SHT30;64644;48.914;2.254;2023-11-19T13:27:54;16.86;62.34
75961;SHT30;64644;48.914;2.254;2023-11-19T13:30:21;16.84;62.30
75961;SHT30;64644;48.914;2.254;2023-11-19T13:32:48;16.89;62.25
75961;SHT30;64644;48.914;2.254;2023-11-19T13:35:13;16.94;61.91
75961;SHT30;64644;48.914;2.254;2023-11-19T13:37:39;16.97;61.83
75961;SHT30;64644;48.914;2.254;2023-11-19T13:40:06;17.04;62.12
75961;SHT30;64644;48.914;2.254;2023-11-19T13:42:32;17.10;62.20
75961;SHT30;64644;48.914;2.254;2023-11-19T13:44:57;17.07;61.68
75961;SHT30;64644;48.914;2.254;2023-11-19T13:47:22;17.10;61.63
75961;SHT30;64644;48.914;2.254;2023-11-19T13:49:49;17.09;61.42
75961;SHT30;64644;48.914;2.254;2023-11-19T13:52:14;17.07;61.16
75961;SHT30;64644;48.914;2.254;2023-11-19T13:54:40;17.07;60.98
75961;SHT30;64644;48.914;2.254;2023-11-19T13:57:06;17.02;60.94
75961;SHT30;64644;48.914;2.254;2023-11-19T13:59:31;17.07;61.04
75961;SHT30;64644;48.914;2.254;2023-11-19T14:02:00;17.09;61.27
75961;SHT30;64644;48.914;2.254;2023-11-19T14:04:25;17.07;60.96
75961;SHT30;64644;48.914;2.254;2023-11-19T14:06:51;17.11;61.07
75961;SHT30;64644;48.914;2.254;2023-11-19T14:09:17;17.07;60.89
75961;SHT30;64644;48.914;2.254;2023-11-19T14:11:42;17.07;60.81
75961;SHT30;64644;48.914;2.254;2023-11-19T14:14:08;17.06;60.45
75961;SHT30;64644;48.914;2.254;2023-11-19T14:16:33;17.10;60.39
75961;SHT30;64644;48.914;2.254;2023-11-19T14:18:59;17.03;60.37
75961;SHT30;64644;48.914;2.254;2023-11-19T14:21:25;16.99;60.59
75961;SHT30;64644;48.914;2.254;2023-11-19T14:23:51;17.00;60.45
75961;SHT30;64644;48.914;2.254;2023-11-19T14:26:17;16.96;60.22
75961;SHT30;64644;48.914;2.254;2023-11-19T14:28:42;16.94;60.38
75961;SHT30;64644;48.914;2.254;2023-11-19T14:31:07;16.92;60.36
75961;SHT30;64644;48.914;2.254;2023-11-19T14:33:33;16.90;60.18
75961;SHT30;64644;48.914;2.254;2023-11-19T14:36:00;16.93;60.41
75961;SHT30;64644;48.914;2.254;2023-11-19T14:38:25;16.87;60.38
75961;SHT30;64644;48.914;2.254;2023-11-19T14:40:51;16.86;60.34
75961;SHT30;64644;48.914;2.254;2023-11-19T14:43:16;16.89;60.35
75961;SHT30;64644;48.914;2.254;2023-11-19T14:45:41;16.83;60.07
75961;SHT30;64644;48.914;2.254;2023-11-19T14:48:07;16.80;59.81
75961;SHT30;64644;48.914;2.254;2023-11-19T14:50:32;16.79;60.01
75961;SHT30;64644;48.914;2.254;2023-11-19T14:52:57;16.75;60.14
75961;SHT30;64644;48.914;2.254;2023-11-19T14:55:23;16.77;60.15
75961;SHT30;64644;48.914;2.254;2023-11-19T14:57:49;16.75;60.42
75961;SHT30;64644;48.914;2.254;2023-11-19T15:00:16;16.77;60.33
75961;SHT30;64644;48.914;2.254;2023-11-19T15:02:41;16.77;60.40
75961;SHT30;64644;48.914;2.254;2023-11-19T15:05:08;16.75;60.24
75961;SHT30;64644;48.914;2.254;2023-11-19T15:07:36;16.76;60.10
75961;SHT30;64644;48.914;2.254;2023-11-19T15:10:01;16.75;60.20
75961;SHT30;64644;48.914;2.254;2023-11-19T15:12:28;16.69;59.78
75961;SHT30;64644;48.914;2.254;2023-11-19T15:14:53;16.69;59.84
75961;SHT30;64644;48.914;2.254;2023-11-19T15:17:18;16.66;59.60
75961;SHT30;64644;48.914;2.254;2023-11-19T15:19:44;16.59;59.48
75961;SHT30;64644;48.914;2.254;2023-11-19T15:22:11;16.55;59.52
75961;SHT30;64644;48.914;2.254;2023-11-19T15:24:36;16.52;59.71
75961;SHT30;64644;48.914;2.254;2023-11-19T15:27:04;16.52;59.84
75961;SHT30;64644;48.914;2.254;2023-11-19T15:29:30;16.52;60.00
75961;SHT30;64644;48.914;2.254;2023-11-19T15:31:55;16.48;59.81
75961;SHT30;64644;48.914;2.254;2023-11-19T15:34:21;16.44;59.75
75961;SHT30;64644;48.914;2.254;2023-11-19T15:36:46;16.44;60.04
75961;SHT30;64644;48.914;2.254;2023-11-19T15:39:11;16.38;60.06
75961;SHT30;64644;48.914;2.254;2023-11-19T15:41:38;16.34;60.09
75961;SHT30;64644;48.914;2.254;2023-11-19T15:44:04;16.32;60.24
75961;SHT30;64644;48.914;2.254;2023-11-19T15:46:30;16.31;60.42
75961;SHT30;64644;48.914;2.254;2023-11-19T15:48:56;16.25;60.45
75961;SHT30;64644;48.914;2.254;2023-11-19T15:51:21;16.22;60.59
75961;SHT30;64644;48.914;2.254;2023-11-19T15:53:47;16.20;60.62
75961;SHT30;64644;48.914;2.254;2023-11-19T15:56:12;16.16;60.72
75961;SHT30;64644;48.914;2.254;2023-11-19T15:58:38;16.14;60.82